Time,TemperatureF,DewpointF,PressureIn,WindDirection,WindDirectionDegrees,WindSpeedMPH,WindSpeedGustMPH,Humidity,HourlyPrecipIn,Conditions,Clouds,dailyrainin,SoftwareType,DateUTC
2013-07-19 00:02:00,77.2,69.1,29.97,ESE,113,0.0,0.0,76,0.00,,,0.00,meteohub,2013-07-19 05:02:00,
2013-07-19 00:07:00,77.2,69.1,29.97,ESE,113,0.0,0.0,76,0.00,,,0.00,meteohub,2013-07-19 05:07:00,
2013-07-19 00:12:00,76.8,68.7,29.97,ESE,113,0.0,0.0,76,0.00,,,0.00,meteohub,2013-07-19 05:12:00,
2013-07-19 00:17:00,76.6,68.5,29.97,ESE,113,0.0,0.0,76,0.00,,,0.00,meteohub,2013-07-19 05:17:00,
2013-07-19 00:22:00,76.8,69.1,29.97,ESE,113,0.0,0.0,77,0.00,,,0.00,meteohub,2013-07-19 05:22:00,
2013-07-19 00:27:00,76.6,68.9,29.97,ESE,113,0.0,0.0,77,0.00,,,0.00,meteohub,2013-07-19 05:27:00,
2013-07-19 00:32:00,76.5,68.7,29.97,SSE,158,0.0,0.0,77,0.00,,,0.00,meteohub,2013-07-19 05:32:00,
2013-07-19 00:37:00,76.5,68.7,29.97,South,180,0.0,0.0,77,0.00,,,0.00,meteohub,2013-07-19 05:37:00,
2013-07-19 00:42:00,76.3,68.5,29.97,South,180,0.0,0.0,77,0.00,,,0.00,meteohub,2013-07-19 05:42:00,
2013-07-19 00:47:00,76.5,68.7,29.97,ESE,113,0.0,0.0,77,0.00,,,0.00,meteohub,2013-07-19 05:47:00,
2013-07-19 00:52:00,76.5,68.7,29.97,ESE,113,0.0,0.0,77,0.00,,,0.00,meteohub,2013-07-19 05:52:00,
2013-07-19 00:57:00,76.5,68.7,29.97,ESE,113,0.0,0.0,77,0.00,,,0.00,meteohub,2013-07-19 05:57:00,
2013-07-19 01:02:00,76.5,68.7,29.97,ESE,113,0.0,0.0,77,0.00,,,0.00,meteohub,2013-07-19 06:02:00,
2013-07-19 01:07:00,76.5,68.7,29.97,ESE,113,0.0,0.0,77,0.00,,,0.00,meteohub,2013-07-19 06:07:00,
2013-07-19 01:12:00,76.5,68.7,29.96,SSW,203,0.0,0.0,77,0.00,,,0.00,meteohub,2013-07-19 06:12:00,
2013-07-19 01:17:00,76.3,68.5,29.96,SSW,203,0.0,0.0,77,0.00,,,0.00,meteohub,2013-07-19 06:17:00,
2013-07-19 01:22:00,76.1,68.4,29.96,SE,135,0.0,0.0,77,0.00,,,0.00,meteohub,2013-07-19 06:22:00,
2013-07-19 01:27:00,75.9,68.2,29.96,ESE,113,0.0,0.0,77,0.00,,,0.00,meteohub,2013-07-19 06:27:00,
2013-07-19 01:32:00,75.9,68.2,29.97,East,90,0.0,0.0,77,0.00,,,0.00,meteohub,2013-07-19 06:32:00,
2013-07-19 01:37:00,75.9,68.2,29.97,SW,225,0.0,0.0,77,0.00,,,0.00,meteohub,2013-07-19 06:37:00,
2013-07-19 01:42:00,75.7,68.0,29.97,SW,225,0.0,0.0,77,0.00,,,0.00,meteohub,2013-07-19 06:42:00,
2013-07-19 01:47:00,75.7,68.0,29.97,WSW,248,0.0,0.0,77,0.00,,,0.00,meteohub,2013-07-19 06:47:00,
2013-07-19 01:52:00,75.6,68.2,29.96,SE,135,0.0,0.0,78,0.00,,,0.00,meteohub,2013-07-19 06:52:00,
2013-07-19 01:57:00,75.6,68.2,29.96,SE,135,0.0,0.0,78,0.00,,,0.00,meteohub,2013-07-19 06:57:00,
2013-07-19 02:02:00,75.4,68.0,29.96,South,180,0.0,0.0,78,0.00,,,0.00,meteohub,2013-07-19 07:02:00,
2013-07-19 02:07:00,75.4,68.0,29.96,SE,135,0.0,0.0,78,0.00,,,0.00,meteohub,2013-07-19 07:07:00,
2013-07-19 02:12:00,75.2,67.8,29.97,SSE,158,0.0,0.0,78,0.00,,,0.00,meteohub,2013-07-19 07:12:00,
2013-07-19 02:17:00,75.0,67.6,29.97,SSE,158,0.0,0.0,78,0.00,,,0.00,meteohub,2013-07-19 07:17:00,
2013-07-19 02:22:00,74.8,67.8,29.97,SE,135,0.0,0.0,79,0.00,,,0.00,meteohub,2013-07-19 07:22:00,
2013-07-19 02:27:00,75.0,68.0,29.97,SSE,158,0.0,0.0,79,0.00,,,0.00,meteohub,2013-07-19 07:27:00,
2013-07-19 02:32:00,74.8,67.8,29.96,South,180,0.0,0.0,79,0.00,,,0.00,meteohub,2013-07-19 07:32:00,
2013-07-19 02:37:00,74.7,67.6,29.96,South,180,0.0,0.0,79,0.00,,,0.00,meteohub,2013-07-19 07:37:00,
2013-07-19 02:42:00,74.7,67.6,29.96,South,180,0.0,0.0,79,0.00,,,0.00,meteohub,2013-07-19 07:42:00,
2013-07-19 02:47:00,74.5,67.5,29.96,SE,135,0.0,0.0,79,0.00,,,0.00,meteohub,2013-07-19 07:47:00,
2013-07-19 02:52:00,74.5,67.8,29.98,South,180,0.0,0.0,80,0.00,,,0.00,meteohub,2013-07-19 07:52:00,
2013-07-19 02:57:00,74.3,67.6,29.98,SSE,158,0.0,0.0,80,0.00,,,0.00,meteohub,2013-07-19 07:57:00,
2013-07-19 03:02:00,74.3,67.6,29.98,South,180,0.0,0.0,80,0.00,,,0.00,meteohub,2013-07-19 08:02:00,
2013-07-19 03:07:00,74.3,67.6,29.98,SE,135,0.0,0.0,80,0.00,,,0.00,meteohub,2013-07-19 08:07:00,
2013-07-19 03:12:00,74.1,67.6,29.97,SE,135,0.0,0.0,80,0.00,,,0.00,meteohub,2013-07-19 08:12:00,
2013-07-19 03:17:00,74.1,67.6,29.97,South,180,0.0,0.0,80,0.00,,,0.00,meteohub,2013-07-19 08:17:00,
2013-07-19 03:23:00,73.9,67.8,29.97,North,0,0.0,0.0,81,0.00,,,0.00,meteohub,2013-07-19 08:23:00,
2013-07-19 03:28:00,73.9,67.8,29.97,SSW,203,0.0,0.0,81,0.00,,,0.00,meteohub,2013-07-19 08:28:00,
2013-07-19 03:33:00,73.8,67.6,29.95,ESE,113,0.0,0.0,81,0.00,,,0.00,meteohub,2013-07-19 08:33:00,
2013-07-19 03:38:00,73.9,67.8,29.95,ESE,113,0.0,0.0,81,0.00,,,0.00,meteohub,2013-07-19 08:38:00,
2013-07-19 03:43:00,73.9,67.8,29.95,South,180,0.0,0.0,81,0.00,,,0.00,meteohub,2013-07-19 08:43:00,
2013-07-19 03:48:00,73.8,67.6,29.95,South,180,0.0,0.0,81,0.00,,,0.00,meteohub,2013-07-19 08:48:00,
2013-07-19 03:53:00,73.8,67.6,29.94,South,180,0.0,0.0,81,0.00,,,0.00,meteohub,2013-07-19 08:53:00,
2013-07-19 03:58:00,73.6,67.5,29.94,South,180,0.0,0.0,81,0.00,,,0.00,meteohub,2013-07-19 08:58:00,
2013-07-19 04:03:00,73.6,67.5,29.94,South,180,0.0,0.0,81,0.00,,,0.00,meteohub,2013-07-19 09:03:00,
2013-07-19 04:08:00,73.4,67.3,29.94,South,180,0.0,0.0,81,0.00,,,0.00,meteohub,2013-07-19 09:08:00,
2013-07-19 04:13:00,73.6,67.5,29.94,South,180,0.0,0.0,81,0.00,,,0.00,meteohub,2013-07-19 09:13:00,
2013-07-19 04:18:00,73.6,67.5,29.94,South,180,0.0,0.0,81,0.00,,,0.00,meteohub,2013-07-19 09:18:00,
2013-07-19 04:23:00,73.4,67.6,29.94,South,180,0.0,0.0,82,0.00,,,0.00,meteohub,2013-07-19 09:23:00,
2013-07-19 04:28:00,73.2,67.5,29.94,South,180,0.0,0.0,82,0.00,,,0.00,meteohub,2013-07-19 09:28:00,
2013-07-19 04:33:00,73.2,67.5,29.94,South,180,0.0,0.0,82,0.00,,,0.00,meteohub,2013-07-19 09:33:00,
2013-07-19 04:38:00,72.9,67.1,29.94,South,180,0.0,0.0,82,0.00,,,0.00,meteohub,2013-07-19 09:38:00,
2013-07-19 04:43:00,72.9,67.1,29.94,South,180,0.0,0.0,82,0.00,,,0.00,meteohub,2013-07-19 09:43:00,
2013-07-19 04:48:00,72.5,66.7,29.95,South,180,0.0,0.0,82,0.00,,,0.00,meteohub,2013-07-19 09:48:00,
2013-07-19 04:53:00,72.3,66.9,29.95,WSW,248,0.0,0.0,83,0.00,,,0.00,meteohub,2013-07-19 09:53:00,
2013-07-19 04:58:00,72.3,66.9,29.95,SE,135,0.0,0.0,83,0.00,,,0.00,meteohub,2013-07-19 09:58:00,
2013-07-19 05:03:00,72.1,66.7,29.95,SE,135,0.0,0.0,83,0.00,,,0.00,meteohub,2013-07-19 10:03:00,
2013-07-19 05:08:00,72.1,66.7,29.95,SE,135,0.0,0.0,83,0.00,,,0.00,meteohub,2013-07-19 10:08:00,
2013-07-19 05:13:00,71.8,66.7,29.95,SE,135,0.0,0.0,84,0.00,,,0.00,meteohub,2013-07-19 10:13:00,
2013-07-19 05:18:00,71.8,66.7,29.95,SE,135,0.0,0.0,84,0.00,,,0.00,meteohub,2013-07-19 10:18:00,
2013-07-19 05:23:00,71.6,66.6,29.95,SE,135,0.0,0.0,84,0.00,,,0.00,meteohub,2013-07-19 10:23:00,
2013-07-19 05:28:00,71.8,66.7,29.95,SE,135,0.0,0.0,84,0.00,,,0.00,meteohub,2013-07-19 10:28:00,
2013-07-19 05:33:00,71.6,66.6,29.94,SE,135,0.0,0.0,84,0.00,,,0.00,meteohub,2013-07-19 10:33:00,
2013-07-19 05:38:00,71.4,66.4,29.94,South,180,0.0,0.0,84,0.00,,,0.00,meteohub,2013-07-19 10:38:00,
2013-07-19 05:43:00,71.4,66.4,29.94,South,180,0.0,0.0,84,0.00,,,0.00,meteohub,2013-07-19 10:43:00,
2013-07-19 05:48:00,71.4,66.4,29.94,SE,135,0.0,0.0,84,0.00,,,0.00,meteohub,2013-07-19 10:48:00,
2013-07-19 05:53:00,71.1,66.4,29.95,SE,135,0.0,0.0,85,0.00,,,0.00,meteohub,2013-07-19 10:53:00,
2013-07-19 05:58:00,70.9,66.2,29.95,West,270,0.0,0.0,85,0.00,,,0.00,meteohub,2013-07-19 10:58:00,
2013-07-19 06:03:00,70.9,66.2,29.95,SSE,158,0.0,0.0,85,0.00,,,0.00,meteohub,2013-07-19 11:03:00,
2013-07-19 06:08:00,70.7,66.0,29.95,WSW,248,0.0,0.0,85,0.00,,,0.00,meteohub,2013-07-19 11:08:00,
2013-07-19 06:13:00,70.7,66.0,29.96,West,270,0.0,0.0,85,0.00,,,0.00,meteohub,2013-07-19 11:13:00,
2013-07-19 06:18:00,70.7,66.4,29.96,West,270,0.0,0.0,86,0.00,,,0.00,meteohub,2013-07-19 11:18:00,
2013-07-19 06:23:00,70.5,66.2,29.96,SW,225,0.0,0.0,86,0.00,,,0.00,meteohub,2013-07-19 11:23:00,
2013-07-19 06:28:00,70.5,66.2,29.96,WSW,248,0.0,0.0,86,0.00,,,0.00,meteohub,2013-07-19 11:28:00,
2013-07-19 06:33:00,70.5,66.2,29.96,SW,225,0.0,0.0,86,0.00,,,0.00,meteohub,2013-07-19 11:33:00,
2013-07-19 06:38:00,70.3,66.0,29.96,SW,225,0.0,0.0,86,0.00,,,0.00,meteohub,2013-07-19 11:38:00,
2013-07-19 06:43:00,70.3,66.2,29.96,WSW,248,0.0,0.0,87,0.00,,,0.00,meteohub,2013-07-19 11:43:00,
2013-07-19 06:48:00,70.3,66.2,29.96,WSW,248,0.0,0.0,87,0.00,,,0.00,meteohub,2013-07-19 11:48:00,
2013-07-19 06:53:00,70.3,66.2,29.96,West,270,0.0,0.0,87,0.00,,,0.00,meteohub,2013-07-19 11:53:00,
2013-07-19 06:58:00,70.3,66.2,29.96,WSW,248,0.0,0.0,87,0.00,,,0.00,meteohub,2013-07-19 11:58:00,
2013-07-19 07:03:00,70.7,66.6,29.96,WSW,248,0.0,0.0,87,0.00,,,0.00,meteohub,2013-07-19 12:03:00,
2013-07-19 07:08:00,70.7,66.6,29.96,SSE,158,0.0,0.0,87,0.00,,,0.00,meteohub,2013-07-19 12:08:00,
2013-07-19 07:13:00,70.7,66.6,29.97,SE,135,0.0,0.0,87,0.00,,,0.00,meteohub,2013-07-19 12:13:00,
2013-07-19 07:18:00,71.1,66.9,29.97,SE,135,0.0,0.0,87,0.00,,,0.00,meteohub,2013-07-19 12:18:00,
2013-07-19 07:23:00,71.1,67.3,29.97,ESE,113,0.0,0.0,88,0.00,,,0.00,meteohub,2013-07-19 12:23:00,
2013-07-19 07:28:00,71.4,67.6,29.97,West,270,0.0,0.0,88,0.00,,,0.00,meteohub,2013-07-19 12:28:00,
2013-07-19 07:33:00,71.6,67.8,29.96,SW,225,0.0,0.0,88,0.00,,,0.00,meteohub,2013-07-19 12:33:00,
2013-07-19 07:38:00,72.0,68.2,29.96,South,180,0.0,0.0,88,0.00,,,0.00,meteohub,2013-07-19 12:38:00,
2013-07-19 07:43:00,72.5,68.7,29.96,South,180,0.0,0.0,88,0.00,,,0.00,meteohub,2013-07-19 12:43:00,
2013-07-19 07:48:00,72.5,68.7,29.96,SSW,203,0.0,0.0,88,0.00,,,0.00,meteohub,2013-07-19 12:48:00,
2013-07-19 07:53:00,72.9,69.1,29.97,South,180,0.0,0.0,88,0.00,,,0.00,meteohub,2013-07-19 12:53:00,
2013-07-19 07:58:00,73.2,69.1,29.97,SW,225,0.0,0.0,87,0.00,,,0.00,meteohub,2013-07-19 12:58:00,
2013-07-19 08:03:00,73.8,69.6,29.97,West,270,0.0,0.0,87,0.00,,,0.00,meteohub,2013-07-19 13:03:00,
2013-07-19 08:08:00,73.9,69.4,29.97,SSW,203,0.0,0.0,86,0.00,,,0.00,meteohub,2013-07-19 13:08:00,
2013-07-19 08:13:00,74.1,69.3,29.96,SW,225,0.0,0.0,85,0.00,,,0.00,meteohub,2013-07-19 13:13:00,
2013-07-19 08:18:00,74.5,70.0,29.96,South,180,0.0,0.0,86,0.00,,,0.00,meteohub,2013-07-19 13:18:00,
2013-07-19 08:23:00,74.7,69.8,29.96,SSW,203,0.0,0.0,85,0.00,,,0.00,meteohub,2013-07-19 13:23:00,
2013-07-19 08:26:00,74.8,70.0,29.96,SW,225,0.0,0.0,85,0.00,,,0.00,meteohub,2013-07-19 13:26:00,
2013-07-19 08:32:00,75.0,69.8,29.96,South,180,0.0,0.0,84,0.00,,,0.00,meteohub,2013-07-19 13:32:00,
2013-07-19 08:37:00,75.4,70.2,29.96,SSW,203,0.0,0.0,84,0.00,,,0.00,meteohub,2013-07-19 13:37:00,
2013-07-19 08:42:00,75.7,70.5,29.96,WSW,248,0.0,0.0,84,0.00,,,0.00,meteohub,2013-07-19 13:42:00,
2013-07-19 08:47:00,76.1,70.9,29.96,West,270,0.0,0.0,84,0.00,,,0.00,meteohub,2013-07-19 13:47:00,
2013-07-19 08:52:00,76.1,70.5,29.96,East,90,0.0,0.0,83,0.00,,,0.00,meteohub,2013-07-19 13:52:00,
2013-07-19 08:57:00,76.3,70.3,29.96,South,180,0.0,0.0,82,0.00,,,0.00,meteohub,2013-07-19 13:57:00,
2013-07-19 09:02:00,76.8,71.2,29.96,West,270,0.0,0.0,83,0.00,,,0.00,meteohub,2013-07-19 14:02:00,
2013-07-19 09:07:00,77.2,71.2,29.96,SW,225,0.0,0.0,82,0.00,,,0.00,meteohub,2013-07-19 14:07:00,
2013-07-19 09:12:00,77.5,71.6,29.95,West,270,0.0,0.0,82,0.00,,,0.00,meteohub,2013-07-19 14:12:00,
2013-07-19 09:17:00,77.5,71.2,29.95,SW,225,0.0,0.0,81,0.00,,,0.00,meteohub,2013-07-19 14:17:00,
2013-07-19 09:22:00,77.7,71.4,29.95,South,180,0.0,0.0,81,0.00,,,0.00,meteohub,2013-07-19 14:22:00,
2013-07-19 09:27:00,78.1,71.8,29.95,WSW,248,0.0,0.0,81,0.00,,,0.00,meteohub,2013-07-19 14:27:00,
2013-07-19 09:32:00,78.1,71.8,29.95,SW,225,0.0,0.0,81,0.00,,,0.00,meteohub,2013-07-19 14:32:00,
2013-07-19 09:37:00,78.6,72.0,29.95,WSW,248,0.0,0.0,80,0.00,,,0.00,meteohub,2013-07-19 14:37:00,
2013-07-19 09:42:00,79.0,72.3,29.95,NW,315,0.0,0.0,80,0.00,,,0.00,meteohub,2013-07-19 14:42:00,
2013-07-19 09:47:00,79.2,72.5,29.95,NW,315,0.0,0.0,80,0.00,,,0.00,meteohub,2013-07-19 14:47:00,
2013-07-19 09:52:00,79.3,72.3,29.95,West,270,0.0,0.0,79,0.00,,,0.00,meteohub,2013-07-19 14:52:00,
2013-07-19 09:57:00,79.7,73.0,29.95,West,270,0.0,0.0,80,0.00,,,0.00,meteohub,2013-07-19 14:57:00,
2013-07-19 09:58:00,79.7,73.0,29.95,West,270,0.0,0.0,80,0.00,,,0.00,meteohub,2013-07-19 14:58:00,
2013-07-19 10:03:00,80.2,73.0,29.95,SSW,203,0.0,0.0,79,0.00,,,0.00,meteohub,2013-07-19 15:03:00,
2013-07-19 10:08:00,80.6,73.4,29.95,WSW,248,0.0,0.0,79,0.00,,,0.00,meteohub,2013-07-19 15:08:00,
2013-07-19 10:13:00,81.1,73.6,29.94,West,270,0.0,0.0,78,0.00,,,0.00,meteohub,2013-07-19 15:13:00,
2013-07-19 10:18:00,81.0,73.0,29.95,SSW,203,0.0,0.0,77,0.00,,,0.00,meteohub,2013-07-19 15:18:00,
2013-07-19 10:23:00,81.1,73.2,29.94,SW,225,0.0,0.0,77,0.00,,,0.00,meteohub,2013-07-19 15:23:00,
2013-07-19 10:28:00,81.5,73.2,29.94,SE,135,0.0,0.0,76,0.00,,,0.00,meteohub,2013-07-19 15:28:00,
2013-07-19 10:33:00,81.9,73.6,29.95,WSW,248,0.0,0.0,76,0.00,,,0.00,meteohub,2013-07-19 15:33:00,
2013-07-19 10:38:00,81.9,73.2,29.95,WSW,248,0.0,0.0,75,0.00,,,0.00,meteohub,2013-07-19 15:38:00,
2013-07-19 10:43:00,82.2,73.6,29.94,SSE,158,0.0,0.0,75,0.00,,,0.00,meteohub,2013-07-19 15:43:00,
2013-07-19 10:48:00,82.6,73.8,29.94,South,180,0.0,0.0,75,0.00,,,0.00,meteohub,2013-07-19 15:48:00,
2013-07-19 10:53:00,82.8,73.6,29.95,West,270,0.0,0.0,74,0.00,,,0.00,meteohub,2013-07-19 15:53:00,
2013-07-19 10:58:00,82.9,73.8,29.95,NW,315,0.0,0.0,74,0.00,,,0.00,meteohub,2013-07-19 15:58:00,
2013-07-19 11:03:00,83.1,73.9,29.95,SW,225,0.0,0.0,74,0.00,,,0.00,meteohub,2013-07-19 16:03:00,
2013-07-19 11:08:00,83.3,73.8,29.95,SW,225,0.0,0.0,73,0.00,,,0.00,meteohub,2013-07-19 16:08:00,
2013-07-19 11:13:00,83.7,74.1,29.94,NW,315,0.0,0.0,73,0.00,,,0.00,meteohub,2013-07-19 16:13:00,
2013-07-19 11:18:00,84.0,73.9,29.94,SW,225,0.0,0.0,72,0.00,,,0.00,meteohub,2013-07-19 16:18:00,
2013-07-19 11:23:00,84.0,73.9,29.94,WNW,293,0.0,0.0,72,0.00,,,0.00,meteohub,2013-07-19 16:23:00,
2013-07-19 11:28:00,84.2,74.7,29.94,SW,225,0.0,0.0,73,0.00,,,0.00,meteohub,2013-07-19 16:28:00,
2013-07-19 11:33:00,84.2,74.1,29.93,West,270,0.0,0.0,72,0.00,,,0.00,meteohub,2013-07-19 16:33:00,
2013-07-19 11:38:00,84.4,74.3,29.93,NW,315,0.0,0.0,72,0.00,,,0.00,meteohub,2013-07-19 16:38:00,
2013-07-19 11:43:00,84.6,74.1,29.93,WNW,293,0.0,0.0,71,0.00,,,0.00,meteohub,2013-07-19 16:43:00,
2013-07-19 11:48:00,84.7,74.7,29.93,West,270,0.0,0.0,72,0.00,,,0.00,meteohub,2013-07-19 16:48:00,
2013-07-19 11:53:00,85.1,74.7,29.93,SSW,203,0.0,0.0,71,0.00,,,0.00,meteohub,2013-07-19 16:53:00,
2013-07-19 11:58:00,84.9,74.8,29.93,WNW,293,0.0,0.0,72,0.00,,,0.00,meteohub,2013-07-19 16:58:00,
2013-07-19 12:03:00,85.1,74.7,29.93,West,270,0.0,0.0,71,0.00,,,0.00,meteohub,2013-07-19 17:03:00,
2013-07-19 12:08:00,85.1,74.7,29.93,West,270,0.0,0.0,71,0.00,,,0.00,meteohub,2013-07-19 17:08:00,
2013-07-19 12:13:00,85.5,74.1,29.92,ESE,113,0.0,0.0,69,0.00,,,0.00,meteohub,2013-07-19 17:13:00,
2013-07-19 12:18:00,85.8,74.5,29.92,East,90,0.0,0.0,69,0.00,,,0.00,meteohub,2013-07-19 17:18:00,
2013-07-19 12:24:00,86.0,74.7,29.92,NW,315,0.0,0.0,69,0.00,,,0.00,meteohub,2013-07-19 17:24:00,
2013-07-19 12:29:00,86.2,74.8,29.92,ESE,113,0.0,0.0,69,0.00,,,0.00,meteohub,2013-07-19 17:29:00,
2013-07-19 12:34:00,85.8,74.5,29.91,SE,135,0.0,0.0,69,0.00,,,0.00,meteohub,2013-07-19 17:34:00,
2013-07-19 12:39:00,86.2,74.8,29.91,SSE,158,0.0,0.0,69,0.00,,,0.00,meteohub,2013-07-19 17:39:00,
2013-07-19 12:44:00,86.0,74.7,29.91,WSW,248,0.0,0.0,69,0.00,,,0.00,meteohub,2013-07-19 17:44:00,
2013-07-19 12:49:00,86.0,74.7,29.91,NE,45,0.0,0.0,69,0.00,,,0.00,meteohub,2013-07-19 17:49:00,
2013-07-19 12:54:00,86.2,74.3,29.91,NE,45,0.0,0.0,68,0.00,,,0.00,meteohub,2013-07-19 17:54:00,
2013-07-19 12:59:00,86.2,74.3,29.91,WNW,293,0.0,0.0,68,0.00,,,0.00,meteohub,2013-07-19 17:59:00,
2013-07-19 13:04:00,86.5,74.7,29.91,SSE,158,0.0,0.0,68,0.00,,,0.00,meteohub,2013-07-19 18:04:00,
2013-07-19 13:09:00,86.5,74.7,29.91,WSW,248,0.0,0.0,68,0.00,,,0.00,meteohub,2013-07-19 18:09:00,
2013-07-19 13:14:00,86.5,74.3,29.93,WSW,248,0.0,0.0,67,0.00,,,0.00,meteohub,2013-07-19 18:14:00,
2013-07-19 13:19:00,86.9,74.7,29.92,South,180,0.0,0.0,67,0.00,,,0.00,meteohub,2013-07-19 18:19:00,
2013-07-19 13:24:00,86.9,74.1,29.92,SW,225,0.0,0.0,66,0.00,,,0.00,meteohub,2013-07-19 18:24:00,
2013-07-19 13:29:00,87.1,73.9,29.92,WSW,248,0.0,0.0,65,0.00,,,0.00,meteohub,2013-07-19 18:29:00,
2013-07-19 13:34:00,87.6,74.8,29.92,SW,225,0.0,0.0,66,0.00,,,0.00,meteohub,2013-07-19 18:34:00,
2013-07-19 13:39:00,87.6,74.3,29.92,NNW,338,0.0,0.0,65,0.00,,,0.00,meteohub,2013-07-19 18:39:00,
2013-07-19 13:44:00,88.0,74.7,29.92,NW,315,0.0,0.0,65,0.00,,,0.00,meteohub,2013-07-19 18:44:00,
2013-07-19 13:49:00,88.2,74.8,29.92,South,180,0.0,0.0,65,0.00,,,0.00,meteohub,2013-07-19 18:49:00,
2013-07-19 13:54:00,88.3,75.0,29.88,WNW,293,0.0,0.0,65,0.00,,,0.00,meteohub,2013-07-19 18:54:00,
2013-07-19 13:59:00,88.2,74.8,29.88,WSW,248,0.0,0.0,65,0.00,,,0.00,meteohub,2013-07-19 18:59:00,
2013-07-19 14:04:00,88.3,75.0,29.88,South,180,0.0,0.0,65,0.00,,,0.00,meteohub,2013-07-19 19:04:00,
2013-07-19 14:09:00,88.5,74.8,29.88,SW,225,0.0,0.0,64,0.00,,,0.00,meteohub,2013-07-19 19:09:00,
2013-07-19 14:14:00,88.5,74.8,29.87,WSW,248,0.0,0.0,64,0.00,,,0.00,meteohub,2013-07-19 19:14:00,
2013-07-19 14:19:00,88.9,75.2,29.87,WSW,248,0.0,0.0,64,0.00,,,0.00,meteohub,2013-07-19 19:19:00,
2013-07-19 14:24:00,89.1,75.2,29.87,WSW,248,0.0,0.0,64,0.00,,,0.00,meteohub,2013-07-19 19:24:00,
2013-07-19 14:29:00,89.4,75.6,29.87,West,270,0.0,0.0,64,0.00,,,0.00,meteohub,2013-07-19 19:29:00,
2013-07-19 14:34:00,89.2,75.0,29.88,WNW,293,0.0,0.0,63,0.00,,,0.00,meteohub,2013-07-19 19:34:00,
2013-07-19 14:39:00,89.4,75.2,29.88,WSW,248,0.0,0.0,63,0.00,,,0.00,meteohub,2013-07-19 19:39:00,
2013-07-19 14:44:00,89.6,75.4,29.88,West,270,0.0,0.0,63,0.00,,,0.00,meteohub,2013-07-19 19:44:00,
2013-07-19 14:49:00,89.8,75.0,29.87,NE,45,0.0,0.0,62,0.00,,,0.00,meteohub,2013-07-19 19:49:00,
2013-07-19 14:54:00,90.0,75.2,29.86,South,180,0.0,0.0,62,0.00,,,0.00,meteohub,2013-07-19 19:54:00,
2013-07-19 14:59:00,90.1,75.4,29.86,South,180,0.0,0.0,62,0.00,,,0.00,meteohub,2013-07-19 19:59:00,
2013-07-19 15:04:00,90.3,75.6,29.86,NW,315,0.0,0.0,62,0.00,,,0.00,meteohub,2013-07-19 20:04:00,
2013-07-19 15:09:00,90.3,75.6,29.86,NW,315,0.0,0.0,62,0.00,,,0.00,meteohub,2013-07-19 20:09:00,
2013-07-19 15:14:00,90.1,75.4,29.86,ENE,68,0.0,0.0,62,0.00,,,0.00,meteohub,2013-07-19 20:14:00,
2013-07-19 15:19:00,90.3,75.0,29.86,East,90,0.0,0.0,61,0.00,,,0.00,meteohub,2013-07-19 20:19:00,
2013-07-19 15:24:00,90.5,75.2,29.86,WSW,248,5.0,0.0,61,0.00,,,0.00,meteohub,2013-07-19 20:24:00,
2013-07-19 15:29:00,90.7,75.4,29.86,SW,225,0.0,5.0,61,0.00,,,0.00,meteohub,2013-07-19 20:29:00,
2013-07-19 15:34:00,91.0,75.7,29.86,SSW,203,0.0,5.0,61,0.00,,,0.00,meteohub,2013-07-19 20:34:00,
2013-07-19 15:39:00,91.4,76.1,29.86,WSW,248,0.0,5.0,61,0.00,,,0.00,meteohub,2013-07-19 20:39:00,
2013-07-19 15:44:00,91.6,75.7,29.86,WNW,293,0.0,0.0,60,0.00,,,0.00,meteohub,2013-07-19 20:44:00,
2013-07-19 15:49:00,91.4,75.6,29.86,NW,315,0.0,0.0,60,0.00,,,0.00,meteohub,2013-07-19 20:49:00,
2013-07-19 15:54:00,91.6,75.7,29.87,West,270,0.0,0.0,60,0.00,,,0.00,meteohub,2013-07-19 20:54:00,
2013-07-19 15:59:00,91.6,75.2,29.87,NNW,338,0.0,0.0,59,0.00,,,0.00,meteohub,2013-07-19 20:59:00,
2013-07-19 16:04:00,91.9,75.0,29.87,ESE,113,0.0,0.0,58,0.00,,,0.00,meteohub,2013-07-19 21:04:00,
2013-07-19 16:09:00,92.3,74.8,29.86,West,270,0.0,0.0,57,0.00,,,0.00,meteohub,2013-07-19 21:09:00,
2013-07-19 16:14:00,92.5,75.0,29.87,SW,225,0.0,0.0,57,0.00,,,0.00,meteohub,2013-07-19 21:14:00,
2013-07-19 16:20:00,92.5,75.6,29.87,SW,225,0.0,0.0,58,0.00,,,0.00,meteohub,2013-07-19 21:20:00,
2013-07-19 16:25:00,92.7,76.3,29.87,SW,225,0.0,0.0,59,0.00,,,0.00,meteohub,2013-07-19 21:25:00,
2013-07-19 16:30:00,92.7,75.2,29.87,WNW,293,0.0,0.0,57,0.00,,,0.00,meteohub,2013-07-19 21:30:00,
2013-07-19 16:35:00,92.8,74.8,29.87,SE,135,0.0,0.0,56,0.00,,,0.00,meteohub,2013-07-19 21:35:00,
2013-07-19 16:40:00,92.5,74.5,29.87,SSE,158,0.0,0.0,56,0.00,,,0.00,meteohub,2013-07-19 21:40:00,
2013-07-19 16:45:00,92.3,74.3,29.87,South,180,0.0,0.0,56,0.00,,,0.00,meteohub,2013-07-19 21:45:00,
2013-07-19 16:50:00,91.9,75.6,29.87,West,270,0.0,0.0,59,0.00,,,0.00,meteohub,2013-07-19 21:50:00,
2013-07-19 16:55:00,91.9,74.5,29.86,NW,315,0.0,0.0,57,0.00,,,0.00,meteohub,2013-07-19 21:55:00,
2013-07-19 17:00:00,92.3,75.4,29.86,WSW,248,0.0,0.0,58,0.00,,,0.00,meteohub,2013-07-19 22:00:00,
2013-07-19 17:05:00,92.1,75.2,29.86,West,270,0.0,0.0,58,0.00,,,0.00,meteohub,2013-07-19 22:05:00,
2013-07-19 17:10:00,92.3,74.8,29.86,WNW,293,0.0,0.0,57,0.00,,,0.00,meteohub,2013-07-19 22:10:00,
2013-07-19 17:15:00,91.9,73.9,29.83,ESE,113,0.0,0.0,56,0.00,,,0.00,meteohub,2013-07-19 22:15:00,
2013-07-19 17:20:00,91.4,73.9,29.83,SE,135,0.0,0.0,57,0.00,,,0.00,meteohub,2013-07-19 22:20:00,
2013-07-19 17:25:00,90.7,73.4,29.83,ESE,113,2.0,2.0,57,0.00,,,0.00,meteohub,2013-07-19 22:25:00,
2013-07-19 17:30:00,89.6,72.3,29.83,ESE,113,0.0,3.0,57,0.00,,,0.00,meteohub,2013-07-19 22:30:00,
2013-07-19 17:35:00,88.9,72.1,29.83,ESE,113,3.0,3.0,58,0.00,,,0.00,meteohub,2013-07-19 22:35:00,
2013-07-19 17:40:00,88.0,71.4,29.83,SE,135,0.0,3.0,58,0.00,,,0.00,meteohub,2013-07-19 22:40:00,
2013-07-19 17:45:00,87.1,71.1,29.84,SSE,158,0.0,3.0,59,0.00,,,0.00,meteohub,2013-07-19 22:45:00,
2013-07-19 17:50:00,86.5,71.1,29.84,WSW,248,0.0,3.0,60,0.00,,,0.00,meteohub,2013-07-19 22:50:00,
2013-07-19 17:55:00,86.4,71.2,29.84,South,180,0.0,2.0,61,0.00,,,0.00,meteohub,2013-07-19 22:55:00,
2013-07-19 18:00:00,85.8,71.2,29.84,South,180,0.0,2.0,62,0.00,,,0.00,meteohub,2013-07-19 23:00:00,
2013-07-19 18:05:00,85.6,71.1,29.84,East,90,0.0,2.0,62,0.00,,,0.00,meteohub,2013-07-19 23:05:00,
2013-07-19 18:10:00,85.6,71.1,29.84,East,90,0.0,0.0,62,0.00,,,0.00,meteohub,2013-07-19 23:10:00,
2013-07-19 18:15:00,84.9,71.4,29.85,SE,135,0.0,0.0,64,0.00,,,0.00,meteohub,2013-07-19 23:15:00,
2013-07-19 18:20:00,84.7,71.6,29.85,SE,135,0.0,0.0,65,0.00,,,0.00,meteohub,2013-07-19 23:20:00,
2013-07-19 18:25:00,84.6,71.4,29.85,ESE,113,0.0,0.0,65,0.00,,,0.00,meteohub,2013-07-19 23:25:00,
2013-07-19 18:30:00,84.4,71.8,29.85,East,90,0.0,0.0,66,0.00,,,0.00,meteohub,2013-07-19 23:30:00,
2013-07-19 18:35:00,84.0,71.4,29.85,South,180,0.0,0.0,66,0.00,,,0.00,meteohub,2013-07-19 23:35:00,
2013-07-19 18:40:00,83.8,71.2,29.85,South,180,0.0,0.0,66,0.00,,,0.00,meteohub,2013-07-19 23:40:00,
2013-07-19 18:45:00,83.7,71.6,29.85,ESE,113,0.0,0.0,67,0.00,,,0.00,meteohub,2013-07-19 23:45:00,
2013-07-19 18:50:00,83.3,71.2,29.85,SE,135,0.0,0.0,67,0.00,,,0.00,meteohub,2013-07-19 23:50:00,
2013-07-19 18:55:00,83.3,71.6,29.85,SE,135,0.0,0.0,68,0.00,,,0.00,meteohub,2013-07-19 23:55:00,
2013-07-19 19:00:00,83.3,71.6,29.85,ESE,113,0.0,0.0,68,0.00,,,0.00,meteohub,2013-07-20 00:00:00,
2013-07-19 19:05:00,83.1,71.4,29.85,SSE,158,0.0,0.0,68,0.00,,,0.00,meteohub,2013-07-20 00:05:00,
2013-07-19 19:10:00,82.9,71.8,29.86,SSW,203,0.0,0.0,69,0.00,,,0.00,meteohub,2013-07-20 00:10:00,
2013-07-19 19:15:00,82.6,71.4,29.86,SSE,158,0.0,0.0,69,0.00,,,0.00,meteohub,2013-07-20 00:15:00,
2013-07-19 19:20:00,82.6,71.4,29.86,SSW,203,0.0,0.0,69,0.00,,,0.00,meteohub,2013-07-20 00:20:00,
2013-07-19 19:25:00,82.4,71.2,29.86,SE,135,0.0,0.0,69,0.00,,,0.00,meteohub,2013-07-20 00:25:00,
2013-07-19 19:30:00,82.6,71.8,29.86,SW,225,0.0,0.0,70,0.00,,,0.00,meteohub,2013-07-20 00:30:00,
2013-07-19 19:35:00,82.8,72.0,29.86,NNW,338,0.0,0.0,70,0.00,,,0.00,meteohub,2013-07-20 00:35:00,
2013-07-19 19:40:00,82.9,72.1,29.86,SSW,203,0.0,0.0,70,0.00,,,0.00,meteohub,2013-07-20 00:40:00,
2013-07-19 19:45:00,82.9,72.1,29.86,SW,225,0.0,0.0,70,0.00,,,0.00,meteohub,2013-07-20 00:45:00,
2013-07-19 19:50:00,82.9,72.1,29.86,SSW,203,0.0,0.0,70,0.00,,,0.00,meteohub,2013-07-20 00:50:00,
2013-07-19 19:55:00,82.8,72.0,29.85,SW,225,0.0,0.0,70,0.00,,,0.00,meteohub,2013-07-20 00:55:00,
2013-07-19 20:00:00,82.6,71.8,29.85,SSW,203,0.0,0.0,70,0.00,,,0.00,meteohub,2013-07-20 01:00:00,
2013-07-19 20:05:00,82.0,71.2,29.85,ESE,113,0.0,0.0,70,0.00,,,0.00,meteohub,2013-07-20 01:05:00,
2013-07-19 20:10:00,81.7,70.9,29.85,SSW,203,0.0,0.0,70,0.00,,,0.00,meteohub,2013-07-20 01:10:00,
2013-07-19 20:15:00,81.3,70.5,29.86,SE,135,0.0,0.0,70,0.00,,,0.00,meteohub,2013-07-20 01:15:00,
2013-07-19 20:20:00,81.1,70.9,29.86,ESE,113,0.0,0.0,71,0.00,,,0.00,meteohub,2013-07-20 01:20:00,
2013-07-19 20:25:00,81.0,71.1,29.86,ESE,113,0.0,0.0,72,0.00,,,0.00,meteohub,2013-07-20 01:25:00,
2013-07-19 20:30:00,80.8,70.9,29.86,South,180,0.0,0.0,72,0.00,,,0.00,meteohub,2013-07-20 01:30:00,
2013-07-19 20:35:00,80.6,70.7,29.85,South,180,0.0,0.0,72,0.00,,,0.00,meteohub,2013-07-20 01:35:00,
2013-07-19 20:40:00,80.2,70.9,29.86,SSE,158,0.0,0.0,73,0.00,,,0.00,meteohub,2013-07-20 01:40:00,
2013-07-19 20:45:00,79.9,70.5,29.86,ESE,113,0.0,0.0,73,0.00,,,0.00,meteohub,2013-07-20 01:45:00,
2013-07-19 20:50:00,79.7,70.3,29.86,East,90,0.0,0.0,73,0.00,,,0.00,meteohub,2013-07-20 01:50:00,
2013-07-19 20:55:00,79.3,69.4,29.86,SE,135,0.0,0.0,72,0.00,,,0.00,meteohub,2013-07-20 01:55:00,
2013-07-19 21:00:00,79.2,69.3,29.86,ENE,68,0.0,0.0,72,0.00,,,0.00,meteohub,2013-07-20 02:00:00,
2013-07-19 21:05:00,79.0,69.6,29.86,East,90,0.0,0.0,73,0.00,,,0.00,meteohub,2013-07-20 02:05:00,
2013-07-19 21:10:00,78.8,69.4,29.86,SE,135,0.0,0.0,73,0.00,,,0.00,meteohub,2013-07-20 02:10:00,
2013-07-19 21:15:00,78.6,69.6,29.86,SSE,158,0.0,0.0,74,0.00,,,0.00,meteohub,2013-07-20 02:15:00,
2013-07-19 21:21:00,78.6,69.6,29.86,SSE,158,0.0,0.0,74,0.00,,,0.00,meteohub,2013-07-20 02:21:00,
2013-07-19 21:26:00,78.3,69.3,29.87,SE,135,0.0,0.0,74,0.00,,,0.00,meteohub,2013-07-20 02:26:00,
2013-07-19 21:31:00,78.1,69.4,29.87,SE,135,0.0,0.0,75,0.00,,,0.00,meteohub,2013-07-20 02:31:00,
2013-07-19 21:36:00,77.9,69.3,29.87,ESE,113,0.0,0.0,75,0.00,,,0.00,meteohub,2013-07-20 02:36:00,
2013-07-19 21:41:00,77.9,69.3,29.87,SW,225,0.0,0.0,75,0.00,,,0.00,meteohub,2013-07-20 02:41:00,
2013-07-19 21:46:00,77.9,69.8,29.87,SE,135,0.0,0.0,76,0.00,,,0.00,meteohub,2013-07-20 02:46:00,
2013-07-19 21:51:00,77.7,69.6,29.87,East,90,0.0,0.0,76,0.00,,,0.00,meteohub,2013-07-20 02:51:00,
2013-07-19 21:56:00,77.5,69.4,29.87,SSE,158,0.0,0.0,76,0.00,,,0.00,meteohub,2013-07-20 02:56:00,
2013-07-19 22:01:00,77.4,69.3,29.87,SSE,158,0.0,0.0,76,0.00,,,0.00,meteohub,2013-07-20 03:01:00,
2013-07-19 22:06:00,77.5,69.8,29.87,SSE,158,0.0,0.0,77,0.00,,,0.00,meteohub,2013-07-20 03:06:00,
2013-07-19 22:11:00,77.4,69.6,29.87,SSE,158,0.0,0.0,77,0.00,,,0.00,meteohub,2013-07-20 03:11:00,
2013-07-19 22:16:00,77.2,69.4,29.88,SSE,158,0.0,0.0,77,0.00,,,0.00,meteohub,2013-07-20 03:16:00,
2013-07-19 22:21:00,77.0,69.3,29.88,SSE,158,0.0,0.0,77,0.00,,,0.00,meteohub,2013-07-20 03:21:00,
2013-07-19 22:26:00,77.0,69.6,29.88,ESE,113,0.0,0.0,78,0.00,,,0.00,meteohub,2013-07-20 03:26:00,
2013-07-19 22:31:00,76.8,69.1,29.88,ESE,113,0.0,0.0,77,0.00,,,0.00,meteohub,2013-07-20 03:31:00,
2013-07-19 22:36:00,76.6,68.9,29.88,SE,135,0.0,0.0,77,0.00,,,0.00,meteohub,2013-07-20 03:36:00,
2013-07-19 22:41:00,76.8,69.4,29.88,South,180,0.0,0.0,78,0.00,,,0.00,meteohub,2013-07-20 03:41:00,
2013-07-19 22:46:00,76.6,69.3,29.88,SE,135,0.0,0.0,78,0.00,,,0.00,meteohub,2013-07-20 03:46:00,
2013-07-19 22:51:00,76.3,68.9,29.88,SE,135,0.0,0.0,78,0.00,,,0.00,meteohub,2013-07-20 03:51:00,
2013-07-19 22:56:00,76.5,69.1,29.88,South,180,0.0,0.0,78,0.00,,,0.00,meteohub,2013-07-20 03:56:00,
2013-07-19 23:01:00,76.1,68.7,29.89,ESE,113,0.0,0.0,78,0.00,,,0.00,meteohub,2013-07-20 04:01:00,
2013-07-19 23:06:00,75.9,68.9,29.89,South,180,0.0,0.0,79,0.00,,,0.00,meteohub,2013-07-20 04:06:00,
2013-07-19 23:11:00,76.1,69.1,29.89,NW,315,0.0,0.0,79,0.00,,,0.00,meteohub,2013-07-20 04:11:00,
2013-07-19 23:16:00,75.7,68.7,29.89,South,180,0.0,0.0,79,0.00,,,0.00,meteohub,2013-07-20 04:16:00,
2013-07-19 23:21:00,75.6,68.5,29.89,WSW,248,0.0,0.0,79,0.00,,,0.00,meteohub,2013-07-20 04:21:00,
2013-07-19 23:26:00,75.7,68.7,29.89,South,180,0.0,0.0,79,0.00,,,0.00,meteohub,2013-07-20 04:26:00,
2013-07-19 23:31:00,75.4,68.4,29.89,South,180,0.0,0.0,79,0.00,,,0.00,meteohub,2013-07-20 04:31:00,
2013-07-19 23:36:00,75.4,68.7,29.89,South,180,0.0,0.0,80,0.00,,,0.00,meteohub,2013-07-20 04:36:00,
2013-07-19 23:41:00,75.2,68.5,29.89,South,180,0.0,0.0,80,0.00,,,0.00,meteohub,2013-07-20 04:41:00,
2013-07-19 23:46:00,75.2,68.9,29.89,SW,225,0.0,0.0,81,0.00,,,0.00,meteohub,2013-07-20 04:46:00,
2013-07-19 23:51:00,75.4,68.7,29.89,West,270,0.0,0.0,80,0.00,,,0.00,meteohub,2013-07-20 04:51:00,
2013-07-19 23:56:00,75.2,68.9,29.89,SSW,203,0.0,0.0,81,0.00,,,0.00,meteohub,2013-07-20 04:56:00,